Awaji Maru — JD2988 — position and weather

sailwx.info

Track history (hours):
 
Tides and Currents Weather Stations Pressure Air Temp Water Temp Dewpoint Dewpoint Depression Visibility Wind Speed Wind Dir Waves Ship Positions

Awaji Maru

Last reported at 2014-Sep-16 04:17 UTC. Time now 2014-Sep-16 19:31 UTC.
Position N 35°29' E 139°39'.

Length 37 m; draft 3 m.

Type: Tug. MMSI: 431001074.

Date/timePositionNaut miles runAvg speedWind from/ knotsBaromVisibWave heightAir tempDewpointWater temp
2014-Sep-16 04:17N 35°29' E 139°39'  
2014-Sep-09 00:13N 35°29' E 139°39'0 0.0
2014-Sep-08 23:33N 35°29' E 139°39'1 1.4
2014-Sep-08 22:33N 35°27' E 139°39'0 0.0
2014-Sep-08 21:33N 35°27' E 139°39'0 0.0
2014-Sep-08 20:33N 35°27' E 139°39'0 0.0
2014-Sep-08 19:33N 35°27' E 139°39'0 0.0
2014-Sep-08 18:33N 35°27' E 139°39'0 0.0
2014-Sep-08 17:33N 35°27' E 139°39'0 0.0
2014-Sep-08 16:33N 35°27' E 139°39'0 0.0
2014-Sep-08 15:33N 35°27' E 139°39'0 0.0
2014-Sep-08 14:33N 35°27' E 139°39'0 0.0
2014-Sep-08 13:33N 35°27' E 139°39'0 0.0
2014-Sep-08 12:33N 35°27' E 139°39'0 0.0
2014-Sep-08 11:33N 35°27' E 139°39'0 0.0
2014-Sep-08 10:33N 35°27' E 139°39'0 0.0
2014-Sep-08 09:33N 35°27' E 139°39'0 0.0
2014-Sep-08 08:33N 35°27' E 139°39'0 0.0
2014-Sep-08 07:33N 35°27' E 139°39'9 9.4
2014-Sep-08 06:33N 35°30' E 139°50'7 7.0
2014-Sep-08 05:33N 35°28' E 139°58'0 0.0
2014-Sep-08 04:33N 35°28' E 139°58'1 1.1
2014-Sep-08 03:33N 35°29' E 139°57'0 0.5
2014-Sep-08 02:33N 35°29' E 139°56'6 6.3
2014-Sep-08 01:33N 35°27' E 139°49'4 3.7
2014-Sep-08 00:33N 35°28' E 139°44'1 0.7
2014-Sep-07 23:33N 35°28' E 139°45'2 1.9
2014-Sep-07 22:34N 35°29' E 139°47'3 3.3
2014-Sep-07 21:33N 35°27' E 139°44'4 4.2
2014-Sep-07 20:33N 35°27' E 139°39'0 0.0
2014-Sep-07 19:33N 35°27' E 139°39'0 0.0
2014-Sep-07 18:33N 35°27' E 139°39'0 0.0
2014-Sep-07 17:33N 35°27' E 139°39'0 0.0
2014-Sep-07 16:33N 35°27' E 139°39'0 0.0
2014-Sep-07 15:33N 35°27' E 139°39'0 0.0
2014-Sep-07 14:33N 35°27' E 139°39'0 0.0
2014-Sep-07 13:33N 35°27' E 139°39'0 0.0
2014-Sep-07 12:33N 35°27' E 139°39'0 0.0
2014-Sep-07 11:33N 35°27' E 139°39'0 0.0
2014-Sep-07 10:33N 35°27' E 139°39'1 1.2
2014-Sep-07 09:33N 35°27' E 139°40'4 3.9
2014-Sep-07 08:33N 35°29' E 139°44'3 2.6
2014-Sep-07 07:33N 35°26' E 139°45'2 1.9
2014-Sep-07 06:33N 35°28' E 139°44'0 0.0
2014-Sep-07 05:33N 35°28' E 139°44'0 0.4
2014-Sep-07 04:34N 35°28' E 139°44'0 0.0
2014-Sep-07 03:33N 35°28' E 139°44'1 0.7
2014-Sep-07 02:33N 35°28' E 139°44'3 2.7
2014-Sep-07 01:33N 35°27' E 139°41'2 2.0
2014-Sep-07 00:33N 35°27' E 139°39'0 0.0
2014-Sep-06 23:33N 35°27' E 139°39'0 0.0
2014-Sep-06 22:33N 35°27' E 139°39'0 0.0
2014-Sep-06 21:33N 35°27' E 139°39'0 0.0
2014-Sep-06 20:33N 35°27' E 139°39'0 0.0
2014-Sep-06 19:33N 35°27' E 139°39'0 0.0
2014-Sep-06 18:33N 35°27' E 139°39'0 0.0
2014-Sep-06 17:33N 35°27' E 139°39'0 0.0
2014-Sep-06 16:33N 35°27' E 139°39'0 0.0
2014-Sep-06 15:33N 35°27' E 139°39'0 0.0
2014-Sep-06 14:33N 35°27' E 139°39'0 0.0
2014-Sep-06 13:33N 35°27' E 139°39'0 0.0
2014-Sep-06 12:33N 35°27' E 139°39'0 0.0
2014-Sep-06 11:33N 35°27' E 139°39'0 0.0
2014-Sep-06 10:33N 35°27' E 139°39'0 0.0
2014-Sep-06 09:33N 35°27' E 139°39'2 2.3
2014-Sep-06 08:33N 35°27' E 139°41'1 0.7
2014-Sep-06 07:33N 35°28' E 139°41'0 0.0
2014-Sep-06 06:33N 35°28' E 139°41'1 0.8
2014-Sep-06 05:33N 35°27' E 139°41'6 5.6
2014-Sep-06 04:33N 35°30' E 139°47'  
Track history (hours):
 
Tides and Currents Weather Stations Pressure Air Temp Water Temp Dewpoint Dewpoint Depression Visibility Wind Speed Wind Dir Waves Ship Positions

Awaji Maru

Last reported at 2014-Sep-16 04:17 UTC. Time now 2014-Sep-16 19:31 UTC.
Position N 35°29' E 139°39'.

Length 37 m; draft 3 m.

Type: Tug. MMSI: 431001074.

Date/timePositionNaut miles runAvg speedWind from/ knotsBaromVisibWave heightAir tempDewpointWater temp
2014-Sep-16 04:17N 35°29' E 139°39'  
2014-Sep-09 00:13N 35°29' E 139°39'0 0.0
2014-Sep-08 23:33N 35°29' E 139°39'1 1.4
2014-Sep-08 22:33N 35°27' E 139°39'0 0.0
2014-Sep-08 21:33N 35°27' E 139°39'0 0.0
2014-Sep-08 20:33N 35°27' E 139°39'0 0.0
2014-Sep-08 19:33N 35°27' E 139°39'0 0.0
2014-Sep-08 18:33N 35°27' E 139°39'0 0.0
2014-Sep-08 17:33N 35°27' E 139°39'0 0.0
2014-Sep-08 16:33N 35°27' E 139°39'0 0.0
2014-Sep-08 15:33N 35°27' E 139°39'0 0.0
2014-Sep-08 14:33N 35°27' E 139°39'0 0.0
2014-Sep-08 13:33N 35°27' E 139°39'0 0.0
2014-Sep-08 12:33N 35°27' E 139°39'0 0.0
2014-Sep-08 11:33N 35°27' E 139°39'0 0.0
2014-Sep-08 10:33N 35°27' E 139°39'0 0.0
2014-Sep-08 09:33N 35°27' E 139°39'0 0.0
2014-Sep-08 08:33N 35°27' E 139°39'0 0.0
2014-Sep-08 07:33N 35°27' E 139°39'9 9.4
2014-Sep-08 06:33N 35°30' E 139°50'7 7.0
2014-Sep-08 05:33N 35°28' E 139°58'0 0.0
2014-Sep-08 04:33N 35°28' E 139°58'1 1.1
2014-Sep-08 03:33N 35°29' E 139°57'0 0.5
2014-Sep-08 02:33N 35°29' E 139°56'6 6.3
2014-Sep-08 01:33N 35°27' E 139°49'4 3.7
2014-Sep-08 00:33N 35°28' E 139°44'1 0.7
2014-Sep-07 23:33N 35°28' E 139°45'2 1.9
2014-Sep-07 22:34N 35°29' E 139°47'3 3.3
2014-Sep-07 21:33N 35°27' E 139°44'4 4.2
2014-Sep-07 20:33N 35°27' E 139°39'0 0.0
2014-Sep-07 19:33N 35°27' E 139°39'0 0.0
2014-Sep-07 18:33N 35°27' E 139°39'0 0.0
2014-Sep-07 17:33N 35°27' E 139°39'0 0.0
2014-Sep-07 16:33N 35°27' E 139°39'0 0.0
2014-Sep-07 15:33N 35°27' E 139°39'0 0.0
2014-Sep-07 14:33N 35°27' E 139°39'0 0.0
2014-Sep-07 13:33N 35°27' E 139°39'0 0.0
2014-Sep-07 12:33N 35°27' E 139°39'0 0.0
2014-Sep-07 11:33N 35°27' E 139°39'0 0.0
2014-Sep-07 10:33N 35°27' E 139°39'1 1.2
2014-Sep-07 09:33N 35°27' E 139°40'4 3.9
2014-Sep-07 08:33N 35°29' E 139°44'3 2.6
2014-Sep-07 07:33N 35°26' E 139°45'2 1.9
2014-Sep-07 06:33N 35°28' E 139°44'0 0.0
2014-Sep-07 05:33N 35°28' E 139°44'0 0.4
2014-Sep-07 04:34N 35°28' E 139°44'0 0.0
2014-Sep-07 03:33N 35°28' E 139°44'1 0.7
2014-Sep-07 02:33N 35°28' E 139°44'3 2.7
2014-Sep-07 01:33N 35°27' E 139°41'2 2.0
2014-Sep-07 00:33N 35°27' E 139°39'0 0.0
2014-Sep-06 23:33N 35°27' E 139°39'0 0.0
2014-Sep-06 22:33N 35°27' E 139°39'0 0.0
2014-Sep-06 21:33N 35°27' E 139°39'0 0.0
2014-Sep-06 20:33N 35°27' E 139°39'0 0.0
2014-Sep-06 19:33N 35°27' E 139°39'0 0.0
2014-Sep-06 18:33N 35°27' E 139°39'0 0.0
2014-Sep-06 17:33N 35°27' E 139°39'0 0.0
2014-Sep-06 16:33N 35°27' E 139°39'0 0.0
2014-Sep-06 15:33N 35°27' E 139°39'0 0.0
2014-Sep-06 14:33N 35°27' E 139°39'0 0.0
2014-Sep-06 13:33N 35°27' E 139°39'0 0.0
2014-Sep-06 12:33N 35°27' E 139°39'0 0.0
2014-Sep-06 11:33N 35°27' E 139°39'0 0.0
2014-Sep-06 10:33N 35°27' E 139°39'0 0.0
2014-Sep-06 09:33N 35°27' E 139°39'2 2.3
2014-Sep-06 08:33N 35°27' E 139°41'1 0.7
2014-Sep-06 07:33N 35°28' E 139°41'0 0.0
2014-Sep-06 06:33N 35°28' E 139°41'1 0.8
2014-Sep-06 05:33N 35°27' E 139°41'6 5.6
2014-Sep-06 04:33N 35°30' E 139°47'  

Dump ship's entire track history